Latest Coastal Weather Observations for Sydney Harbour

IDN60701

Issued at 4:21 am EST Tuesday 28 June 2022 (issued every 10 minutes, with the page automatically refreshed every 10 minutes)

About coastal observations | Map of coastal stations | Coastal observations for NSW | Marine services | Other Formats
Station Details ID: 066196 Name: WEDDING CAKE WEST Lat: -33.84 Lon: 151.26 Height: 6.0 m
Data from the previous 72 hours. | See also: Recent months at Sydney Harbour
Date/Time
EST
Wind Sea
Height
m
Swell Vis
km
Cloud Weather Temp
°C
Press
MSL
hPa
Rain since
9am
mm
Dir  Spd
kts
Gust
kts
Height
m
Period
s
Dir
28/04:00am WSW 10 13 - - - - - - - 9.8 - -
28/03:30am WSW 12 15 - - - - - - - 10.9 - -
28/03:00am SW 16 20 - - - - - - - 10.8 - -
28/02:30am WSW 14 20 - - - - - - - 10.2 - -
28/02:00am WSW 14 18 - - - - - - - 10.2 - -
28/01:30am W 15 19 - - - - - - - 10.4 - -
28/01:00am W 14 17 - - - - - - - 9.9 - -
28/12:30am W 15 17 - - - - - - - 9.8 - -
28/12:00am W 15 19 - - - - - - - 9.5 - -
 
Date/Time
EST
Wind Sea
Height
m
Swell Vis
km
Cloud Weather Temp
°C
Press
MSL
hPa
Rain since
9am
mm
Dir  Spd
kts
Gust
kts
Height
m
Period
s
Dir
27/11:30pm WNW 14 17 - - - - - - - 10.3 - -
27/11:00pm W 15 18 - - - - - - - 10.0 - -
27/10:30pm WSW 14 18 - - - - - - - 10.5 - -
27/10:00pm W 16 21 - - - - - - - 11.2 - -
27/09:46pm WSW 15 25 - - - - - - - 12.1 - -
27/09:30pm SW 17 22 - - - - - - - 12.2 - -
27/09:00pm SW 19 25 - - - - - - - 12.6 - -
27/08:30pm WSW 17 23 - - - - - - - 12.1 - -
27/08:00pm SW 16 20 - - - - - - - 12.6 - -
27/07:30pm WSW 15 22 - - - - - - - 12.8 - -
27/07:00pm SW 17 21 - - - - - - - 13.1 - -
27/06:30pm SW 19 25 - - - - - - - 13.5 - -
27/06:00pm WSW 16 23 - - - - - - - 13.5 - -
27/05:30pm SW 21 27 - - - - - - - 13.9 - -
27/05:00pm SSW 20 26 - - - - - - - 14.2 - -
27/04:32pm SSW 22 32 - - - - - - - 14.3 - -
27/04:30pm SSW 23 32 - - - - - - - 14.5 - -
27/04:00pm SSW 27 32 - - - - - - - 14.4 - -
27/03:30pm SSW 22 29 - - - - - - - 14.3 - -
27/03:10pm SSW 24 34 - - - - - - - 14.3 - -
27/03:00pm SSW 22 31 - - - - - - - 14.1 - -
27/02:49pm SSW 25 35 - - - - - - - 14.1 - -
27/02:30pm SSW 24 32 - - - - - - - 14.3 - -
27/02:09pm SSW 23 33 - - - - - - - 14.4 - -
27/02:00pm SSW 26 32 - - - - - - - 14.4 - -
27/01:30pm SSW 27 35 - - - - - - - 14.3 - -
27/01:00pm SSW 24 35 - - - - - - - 14.5 - -
27/12:30pm SSW 25 36 - - - - - - - 14.8 - -
27/12:22pm SSW 25 36 - - - - - - - 14.5 - -
27/12:00pm SSW 24 31 - - - - - - - 14.9 - -
27/11:30am SSW 24 30 - - - - - - - 14.7 - -
27/11:00am SW 21 25 - - - - - - - 14.6 - -
27/10:30am SW 22 28 - - - - - - - 14.5 - -
27/10:15am SW 15 25 - - - - - - - 14.6 - -
27/10:00am WSW 15 20 - - - - - - - 14.0 - -
27/09:30am WSW 15 20 - - - - - - - 13.1 - -
27/09:00am W 13 18 - - - - - - - 12.8 - -
27/08:30am WSW 12 16 - - - - - - - 12.6 - -
27/08:00am WSW 12 16 - - - - - - - 12.6 - -
27/07:30am WSW 13 17 - - - - - - - 12.4 - -
27/07:00am WSW 12 17 - - - - - - - 12.3 - -
27/06:30am WSW 14 19 - - - - - - - 12.5 - -
27/06:00am WSW 12 16 - - - - - - - 12.4 - -
27/05:30am WSW 14 19 - - - - - - - 12.5 - -
27/05:00am WSW 16 22 - - - - - - - 12.8 - -
27/04:30am WSW 11 15 - - - - - - - 12.6 - -
27/04:00am WSW 12 15 - - - - - - - 12.8 - -
27/03:30am WSW 13 15 - - - - - - - 13.3 - -
27/03:00am WSW 11 14 - - - - - - - 13.8 - -
27/02:30am WSW 11 15 - - - - - - - 14.2 - -
27/02:00am WSW 13 17 - - - - - - - 14.2 - -
27/01:30am W 13 18 - - - - - - - 14.4 - -
27/01:00am W 12 15 - - - - - - - 14.6 - -
27/12:30am W 13 17 - - - - - - - 14.4 - -
27/12:00am WSW 13 15 - - - - - - - 14.5 - -
 
Date/Time
EST
Wind Sea
Height
m
Swell Vis
km
Cloud Weather Temp
°C
Press
MSL
hPa
Rain since
9am
mm
Dir  Spd
kts
Gust
kts
Height
m
Period
s
Dir
26/11:30pm WSW 12 16 - - - - - - - 15.1 - -
26/11:00pm WSW 9 11 - - - - - - - 15.1 - -
26/10:30pm WSW 9 11 - - - - - - - 15.4 - -
26/10:00pm W 9 11 - - - - - - - 15.9 - -
26/09:30pm W 11 13 - - - - - - - 16.1 - -
26/09:00pm W 8 10 - - - - - - - 16.5 - -
26/08:30pm SSW 4 5 - - - - - - - 16.2 - -
26/08:00pm SW 3 4 - - - - - - - 16.4 - -
26/07:30pm WSW 4 5 - - - - - - - 16.2 - -
26/07:00pm SW 1 3 - - - - - - - 16.4 - -
26/06:30pm W 1 4 - - - - - - - 16.7 - -
26/06:00pm SW 4 6 - - - - - - - 16.8 - -
26/05:30pm CALM 0 0 - - - - - - - 17.1 - -
26/05:00pm WSW 3 5 - - - - - - - 17.0 - -
26/04:30pm SW 4 5 - - - - - - - 17.5 - -
26/04:00pm SSW 5 6 - - - - - - - 18.2 - -
26/03:30pm SW 4 5 - - - - - - - 18.3 - -
26/03:00pm SW 5 6 - - - - - - - 18.7 - -
26/02:30pm SW 6 7 - - - - - - - 18.7 - -
26/02:00pm SW 7 11 - - - - - - - 18.5 - -
26/01:30pm SW 6 7 - - - - - - - 18.3 - -
26/01:00pm SW 5 8 - - - - - - - 17.7 - -
26/12:30pm SW 7 9 - - - - - - - 17.1 - -
26/12:00pm SW 7 8 - - - - - - - 16.5 - -
26/11:30am SW 7 8 - - - - - - - 15.8 - -
26/11:00am SW 7 9 - - - - - - - 15.0 - -
26/10:30am SSW 7 8 - - - - - - - 14.3 - -
26/10:00am SSW 7 8 - - - - - - - 13.6 - -
26/09:30am SSW 6 7 - - - - - - - 12.5 - -
26/09:00am SSW 7 8 - - - - - - - 12.1 - -
26/08:30am S 5 8 - - - - - - - 12.1 - -
26/08:00am SSW 4 6 - - - - - - - 11.9 - -
26/07:30am WSW 4 6 - - - - - - - 11.5 - -
26/07:00am SW 5 6 - - - - - - - 11.8 - -
26/06:30am SSW 5 7 - - - - - - - 11.8 - -
26/06:00am WSW 5 8 - - - - - - - 11.7 - -
26/05:30am WSW 6 9 - - - - - - - 11.9 - -
26/05:00am SW 3 6 - - - - - - - 11.7 - -
26/04:30am W 3 6 - - - - - - - 12.2 - -
26/04:00am W 5 6 - - - - - - - 11.8 - -
26/03:30am W 4 7 - - - - - - - 12.3 - -
26/03:00am W 4 5 - - - - - - - 12.4 - -
26/02:30am W 4 5 - - - - - - - 12.9 - -
26/02:00am NNW 1 4 - - - - - - - 13.0 - -
26/01:30am WSW 4 6 - - - - - - - 13.6 - -
26/01:00am W 4 5 - - - - - - - 14.0 - -
26/12:30am WNW 6 8 - - - - - - - 14.8 - -
26/12:00am W 7 9 - - - - - - - 14.7 - -
 
Date/Time
EST
Wind Sea
Height
m
Swell Vis
km
Cloud Weather Temp
°C
Press
MSL
hPa
Rain since
9am
mm
Dir  Spd
kts
Gust
kts
Height
m
Period
s
Dir
25/11:30pm W 6 7 - - - - - - - 14.7 - -
25/11:00pm W 7 8 - - - - - - - 15.0 - -
25/10:30pm W 7 8 - - - - - - - 15.2 - -
25/10:00pm WNW 6 7 - - - - - - - 15.6 - -
25/09:30pm WNW 5 7 - - - - - - - 15.9 - -
25/09:00pm W 6 7 - - - - - - - 15.8 - -
25/08:30pm W 6 7 - - - - - - - 16.2 - -
25/08:00pm WSW 8 10 - - - - - - - 17.0 - -
25/07:30pm W 7 8 - - - - - - - 17.2 - -
25/07:00pm W 7 9 - - - - - - - 17.5 - -
25/06:30pm WSW 5 7 - - - - - - - 17.7 - -
25/06:00pm W 5 6 - - - - - - - 17.8 - -
25/05:30pm WSW 6 8 - - - - - - - 18.4 - -
25/05:00pm WSW 7 8 - - - - - - - 18.1 - -
25/04:30pm W 6 8 - - - - - - - 18.3 - -
25/04:00pm WSW 9 13 - - - - - - - 19.1 - -
25/03:30pm WSW 8 11 - - - - - - - 19.3 - -
25/03:00pm WSW 8 11 - - - - - - - 19.4 - -
25/02:30pm W 8 13 - - - - - - - 19.1 - -
25/02:00pm WSW 9 12 - - - - - - - 18.9 - -
25/01:30pm W 12 16 - - - - - - - 18.7 - -
25/01:00pm W 12 16 - - - - - - - 18.7 - -
25/12:30pm WSW 10 13 - - - - - - - 18.1 - -
25/12:00pm WSW 8 11 - - - - - - - 17.5 - -
25/11:30am SW 8 9 - - - - - - - 17.0 - -
25/11:00am WSW 9 11 - - - - - - - 16.5 - -
25/10:30am WSW 8 11 - - - - - - - 15.7 - -
25/10:00am WSW 9 12 - - - - - - - 15.3 - -
25/09:30am W 9 10 - - - - - - - 14.8 - -
25/09:00am WSW 9 11 - - - - - - - 13.9 - -
25/08:30am SW 6 8 - - - - - - - 14.1 - -
25/08:00am W 6 8 - - - - - - - 14.2 - -
25/07:30am W 9 13 - - - - - - - 14.2 - -
25/07:00am WNW 11 14 - - - - - - - 14.3 - -
25/06:30am WNW 14 19 - - - - - - - 14.4 - -
25/06:00am W 7 9 - - - - - - - 13.7 - -
25/05:30am WNW 6 8 - - - - - - - 14.2 - -
25/05:00am NW 7 9 - - - - - - - 14.1 - -
25/04:30am WNW 10 14 - - - - - - - 14.4 - -

Other formats

Comma delimited format used in spreadsheet applications
http://www.bom.gov.au/fwo/IDN60701/IDN60701.95766.axf

JavaScript Object Notation format (JSON) in row-major order
http://www.bom.gov.au/fwo/IDN60701/IDN60701.95766.json

Data quality

Most of these data are generated automatically and are frequently updated. Quality checks on data are not normally performed. It is possible for incorrect values to appear. Refer to information at About Latest Weather Observations and please check the disclaimer before using these data.